Port Allen, Louisiana
Current Conditions -  °F | °C
As of 2:53 AM on Saturday 29 Nov 2014 (Local Time) from KBTR Reporting Station
Haze Haze  
Wind Chill: 46°   Ceiling: Unl
Heat Index: 46°   Visibility: 6mi
Dew Point: 44°   Wind: 3mph
Humidity: 93%   Direction: 80°E
Pressure: 30.19"   Gusts: NA
Location:  30.46°N, 91.21°W
Report Text: KBTR 290853Z AUTO 08003KT 6SM BR CLR 08/07 A3019 RMK AO2 SLP222 T00780067 56010 TSNO
Loading
Personal Weather Stations






























Interactive Weather Map New forecast layout! Learn more

10-Day Weather Forecast

Advertisements
Track Severe Weather on mobile